Time;durP1;ratioP1;P1;durP2;ratioP2;P2;SDS_P1;SDS_P2;PMS_P1;PMS_P2;Temp;Humidity;BMP_temperature;BMP_pressure;BME280_temperature;BME280_humidity;BME280_pressure;Samples;Min_cycle;Max_cycle;Signal;HPM_P1;HPM_P2
2022/01/03 00:00:23;;;;;;;1.05;1.05;;;;;;;-9.45;78.41;98441.34;4961588;29;20047;-86
2022/01/03 00:02:52;;;;;;;0.95;0.95;;;;;;;-9.48;78.52;98428.56;4953759;29;20043;-86
2022/01/03 00:05:25;;;;;;;1.10;1.10;;;;;;;-9.50;78.45;98427.84;4938239;29;20062;-90
2022/01/03 00:07:52;;;;;;;1.02;1.02;;;;;;;-9.45;78.54;98420.44;4898202;29;20538;-89
2022/01/03 00:10:20;;;;;;;1.23;1.20;;;;;;;-9.50;78.42;98417.41;4930722;29;20545;-89
2022/01/03 00:12:49;;;;;;;0.98;0.98;;;;;;;-9.52;78.48;98422.78;4930976;29;20486;-89
2022/01/03 00:15:18;;;;;;;1.40;1.30;;;;;;;-9.51;78.55;98413.97;4948057;29;20134;-88
2022/01/03 00:17:46;;;;;;;1.23;1.17;;;;;;;-9.53;78.49;98402.00;4920837;29;20051;-86
2022/01/03 00:20:14;;;;;;;1.10;1.10;;;;;;;-9.51;78.66;98411.34;4950416;29;20062;-89
2022/01/03 00:23:05;;;;;;;1.00;1.00;;;;;;;-9.54;78.44;98395.97;4934096;29;20079;-85
2022/01/03 00:25:38;;;;;;;1.00;1.00;;;;;;;-9.56;78.71;98394.44;4940231;28;20095;-83
2022/01/03 00:28:14;;;;;;;1.00;1.00;;;;;;;-9.59;78.71;98392.91;4921077;29;20048;-83
2022/01/03 00:30:43;;;;;;;0.70;0.70;;;;;;;-9.64;78.76;98390.69;4917362;29;20055;-84
2022/01/03 00:33:11;;;;;;;0.93;0.93;;;;;;;-9.60;78.85;98379.00;4919074;29;20113;-83
2022/01/03 00:35:43;;;;;;;1.05;1.05;;;;;;;-9.62;79.25;98370.50;4950751;29;20062;-85
2022/01/03 00:38:12;;;;;;;0.85;0.85;;;;;;;-9.61;79.17;98361.69;4939467;28;20135;-87
2022/01/03 00:40:40;;;;;;;1.10;1.10;;;;;;;-9.57;79.33;98357.00;4925732;29;20563;-86
2022/01/03 00:43:07;;;;;;;1.08;1.08;;;;;;;-9.53;79.03;98361.03;4955485;29;20098;-88
2022/01/03 00:45:34;;;;;;;0.80;0.80;;;;;;;-9.56;78.91;98357.88;4941497;29;20050;-87
2022/01/03 00:48:09;;;;;;;1.00;1.00;;;;;;;-9.60;79.08;98347.66;4948477;29;20063;-87
2022/01/03 00:50:37;;;;;;;1.02;1.02;;;;;;;-9.65;79.01;98342.00;4926030;29;20056;-87
2022/01/03 00:53:05;;;;;;;0.90;0.90;;;;;;;-9.71;79.08;98334.72;4931076;29;20058;-87
2022/01/03 00:55:32;;;;;;;1.00;1.00;;;;;;;-9.69;79.40;98327.56;4946388;29;20519;-86
2022/01/03 00:58:05;;;;;;;1.00;1.00;;;;;;;-9.64;79.46;98320.16;4942236;29;20551;-86
2022/01/03 01:00:36;;;;;;;0.98;0.98;;;;;;;-9.64;79.43;98314.13;4941538;29;20457;-86
2022/01/03 01:03:12;;;;;;;1.08;1.08;;;;;;;-9.65;79.60;98318.50;4925352;29;20055;-86
2022/01/03 01:05:46;;;;;;;0.98;0.98;;;;;;;-9.65;79.32;98310.66;4927708;29;20055;-87
2022/01/03 01:08:22;;;;;;;0.90;0.90;;;;;;;-9.63;79.89;98306.13;4948841;29;20514;-87
2022/01/03 01:10:51;;;;;;;0.88;0.88;;;;;;;-9.67;79.58;98294.31;4944451;29;20059;-86
2022/01/03 01:13:20;;;;;;;1.10;1.10;;;;;;;-9.64;79.61;98296.66;4924961;29;20106;-88
2022/01/03 01:15:48;;;;;;;1.27;1.20;;;;;;;-9.66;79.69;98288.13;4934153;29;20499;-87
2022/01/03 01:18:16;;;;;;;1.00;1.00;;;;;;;-9.68;79.62;98290.03;4951044;29;20111;-87
2022/01/03 01:20:48;;;;;;;0.90;0.90;;;;;;;-9.65;79.91;98278.50;4923532;29;20048;-88
2022/01/03 01:23:17;;;;;;;0.90;0.90;;;;;;;-9.66;79.92;98269.03;4927629;29;20079;-86
2022/01/03 01:28:15;;;;;;;0.98;0.98;;;;;;;-9.64;80.03;98262.69;4930372;29;20537;-88
2022/01/03 01:30:43;;;;;;;0.90;0.90;;;;;;;-9.62;79.94;98254.72;4918952;29;20150;-85
2022/01/03 01:33:13;;;;;;;0.80;0.80;;;;;;;-9.56;79.88;98250.75;4927539;29;20051;-86
2022/01/03 01:35:47;;;;;;;1.10;1.10;;;;;;;-9.60;79.84;98242.34;4955034;29;20043;-87
2022/01/03 01:38:19;;;;;;;0.85;0.85;;;;;;;-9.68;80.01;98250.88;4938006;29;20039;-87
2022/01/03 01:40:52;;;;;;;0.93;0.93;;;;;;;-9.76;80.10;98248.09;4955079;29;20071;-87
2022/01/03 01:43:33;;;;;;;0.98;0.98;;;;;;;-9.81;80.30;98250.28;4929622;29;20066;-88
2022/01/03 01:46:08;;;;;;;1.08;1.08;;;;;;;-9.82;80.46;98243.44;4934831;29;20094;-86
2022/01/03 01:48:38;;;;;;;0.90;0.90;;;;;;;-9.85;80.65;98248.91;4937833;29;20055;-88
2022/01/03 01:51:09;;;;;;;0.90;0.90;;;;;;;-9.80;80.79;98236.25;4921494;29;20087;-87
2022/01/03 01:53:43;;;;;;;0.80;0.80;;;;;;;-9.71;80.87;98230.25;4937948;29;20047;-87
2022/01/03 01:56:37;;;;;;;1.00;1.00;;;;;;;-9.69;80.91;98233.56;4920943;29;20063;-87
2022/01/03 01:59:19;;;;;;;1.00;1.00;;;;;;;-9.70;80.75;98226.66;4933321;29;20063;-87
2022/01/03 02:02:01;;;;;;;0.90;0.90;;;;;;;-9.69;80.58;98217.88;4941429;29;20158;-86
2022/01/03 02:04:43;;;;;;;1.00;1.00;;;;;;;-9.74;80.73;98214.03;4933194;29;20079;-89
2022/01/03 02:07:34;;;;;;;1.10;1.10;;;;;;;-9.79;80.92;98211.00;4924103;29;20058;-88
2022/01/03 02:10:15;;;;;;;0.90;0.90;;;;;;;-9.77;81.11;98215.13;4919763;29;20051;-87
2022/01/03 02:12:49;;;;;;;1.13;1.13;;;;;;;-9.76;80.99;98200.28;4929761;29;20062;-87
2022/01/03 02:15:22;;;;;;;1.02;1.02;;;;;;;-9.83;81.15;98203.41;4923073;29;20511;-87
2022/01/03 02:17:50;;;;;;;1.10;1.10;;;;;;;-9.79;81.42;98197.94;4939447;29;20059;-87
2022/01/03 02:20:26;;;;;;;0.82;0.82;;;;;;;-9.77;81.21;98199.47;4922700;29;20325;-86
2022/01/03 02:23:01;;;;;;;1.30;1.20;;;;;;;-9.76;81.33;98184.59;4937216;29;20146;-87
2022/01/03 02:25:31;;;;;;;1.10;1.10;;;;;;;-9.78;81.31;98178.69;4932963;29;20052;-87
2022/01/03 02:28:00;;;;;;;0.90;0.90;;;;;;;-9.74;81.33;98159.19;4942382;29;20152;-86
2022/01/03 02:30:30;;;;;;;1.10;1.10;;;;;;;-9.76;81.31;98161.94;4930234;29;20048;-86
2022/01/03 02:32:57;;;;;;;1.02;1.02;;;;;;;-9.78;81.29;98161.22;4937524;29;20058;-87
2022/01/03 02:35:26;;;;;;;0.90;0.90;;;;;;;-9.77;81.49;98162.06;4918995;29;20399;-87
2022/01/03 02:37:54;;;;;;;0.98;0.98;;;;;;;-9.77;81.51;98154.22;4954375;29;20159;-86
2022/01/03 02:40:23;;;;;;;0.98;0.98;;;;;;;-9.84;81.64;98157.38;4932022;29;20058;-87
2022/01/03 02:42:53;;;;;;;1.00;1.00;;;;;;;-9.83;81.70;98151.19;4928541;29;20043;-86
2022/01/03 02:45:23;;;;;;;1.10;1.10;;;;;;;-9.78;81.87;98152.56;4929377;29;20099;-87
2022/01/03 02:47:56;;;;;;;1.02;1.02;;;;;;;-9.84;81.68;98152.16;4933565;29;20462;-87
2022/01/03 02:50:25;;;;;;;0.90;0.90;;;;;;;-9.87;81.72;98131.56;4940521;29;20048;-86
2022/01/03 02:52:52;;;;;;;1.30;1.20;;;;;;;-9.88;81.78;98131.69;4938079;29;20047;-87
2022/01/03 02:55:22;;;;;;;1.00;1.00;;;;;;;-9.89;81.90;98123.03;4947065;29;20075;-87
2022/01/03 02:57:52;;;;;;;1.00;1.00;;;;;;;-9.94;81.93;98117.41;4940844;29;20118;-88
2022/01/03 03:00:28;;;;;;;1.10;1.10;;;;;;;-9.95;81.89;98109.69;4933449;29;20055;-87
2022/01/03 03:02:57;;;;;;;0.95;0.95;;;;;;;-10.00;82.26;98111.88;4935547;29;20115;-88
2022/01/03 03:05:26;;;;;;;1.27;1.20;;;;;;;-10.02;82.03;98109.44;4927183;29;20083;-88
2022/01/03 03:07:53;;;;;;;1.00;1.00;;;;;;;-9.93;82.38;98113.81;4957862;29;20047;-88
2022/01/03 03:10:24;;;;;;;1.00;1.00;;;;;;;-9.93;82.37;98119.03;4946645;29;20050;-86
2022/01/03 03:12:54;;;;;;;0.90;0.90;;;;;;;-9.90;82.21;98112.72;4937158;28;20054;-88
2022/01/03 03:15:24;;;;;;;1.30;1.20;;;;;;;-9.86;82.34;98122.75;4931760;29;20891;-88
2022/01/03 03:17:51;;;;;;;1.10;1.10;;;;;;;-9.84;82.35;98112.19;4935701;29;20527;-86
2022/01/03 03:20:20;;;;;;;1.10;1.10;;;;;;;-9.82;82.27;98118.09;4953946;29;20082;-87
2022/01/03 03:22:49;;;;;;;1.05;1.05;;;;;;;-9.81;82.23;98104.88;4948858;29;20066;-87
2022/01/03 03:25:23;;;;;;;1.15;1.15;;;;;;;-9.78;82.56;98102.97;4930025;29;20082;-87
2022/01/03 03:27:54;;;;;;;0.90;0.90;;;;;;;-9.77;82.17;98105.44;4935764;29;20111;-87
2022/01/03 03:30:26;;;;;;;0.77;0.77;;;;;;;-9.81;82.06;98104.88;4926029;29;20043;-87
2022/01/03 03:33:09;;;;;;;1.00;1.00;;;;;;;-9.78;82.22;98092.53;4923642;29;20055;-87
2022/01/03 03:35:44;;;;;;;0.98;0.98;;;;;;;-9.72;82.29;98098.03;4933386;29;20510;-87
2022/01/03 03:38:13;;;;;;;0.90;0.90;;;;;;;-9.74;82.27;98089.50;4936348;29;20058;-88
2022/01/03 03:40:45;;;;;;;0.85;0.85;;;;;;;-9.75;82.01;98095.66;4922255;29;20530;-87
2022/01/03 03:43:14;;;;;;;0.93;0.93;;;;;;;-9.78;82.04;98095.13;4928742;29;20051;-87
2022/01/03 03:45:42;;;;;;;1.10;1.10;;;;;;;-9.80;82.06;98082.19;4917055;29;20491;-87
2022/01/03 03:48:10;;;;;;;1.10;1.10;;;;;;;-9.86;81.95;98075.75;4918761;29;20079;-87
2022/01/03 03:50:38;;;;;;;0.95;0.95;;;;;;;-9.87;81.97;98057.63;4920005;29;20129;-86
2022/01/03 03:53:05;;;;;;;0.80;0.80;;;;;;;-9.94;82.05;98062.56;4941294;29;20052;-86
2022/01/03 03:55:32;;;;;;;1.00;1.00;;;;;;;-9.93;82.35;98072.03;4948707;29;20111;-82
2022/01/03 03:58:01;;;;;;;1.30;1.20;;;;;;;-9.87;82.17;98071.50;4933347;29;20102;-90
2022/01/03 04:00:30;;;;;;;1.00;1.00;;;;;;;-9.87;82.29;98057.63;4934375;29;20055;-88
2022/01/03 04:03:01;;;;;;;1.00;1.00;;;;;;;-9.89;82.31;98051.72;4936196;29;20046;-89
2022/01/03 04:05:30;;;;;;;0.93;0.93;;;;;;;-9.94;82.28;98052.13;4936015;29;20075;-88
2022/01/03 04:07:57;;;;;;;1.10;1.10;;;;;;;-9.98;82.23;98050.75;4939260;29;20076;-87
2022/01/03 04:10:24;;;;;;;0.90;0.90;;;;;;;-9.88;82.31;98055.97;4938370;29;20051;-88
2022/01/03 04:12:51;;;;;;;1.00;1.00;;;;;;;-9.88;82.29;98054.16;4944592;29;20056;-88
2022/01/03 04:15:19;;;;;;;1.10;1.10;;;;;;;-9.88;82.08;98050.75;4954822;29;20143;-88
2022/01/03 04:17:48;;;;;;;0.85;0.85;;;;;;;-9.91;82.40;98040.59;4955395;29;20079;-87
2022/01/03 04:20:18;;;;;;;1.30;1.20;;;;;;;-9.94;82.35;98039.06;4963830;29;20052;-87
2022/01/03 04:22:47;;;;;;;0.77;0.77;;;;;;;-9.93;82.75;98038.09;4931075;29;20132;-87
2022/01/03 04:25:16;;;;;;;0.90;0.90;;;;;;;-9.93;82.41;98034.69;4963186;29;20062;-88
2022/01/03 04:27:43;;;;;;;0.90;0.90;;;;;;;-9.92;82.47;98029.31;4922196;29;20052;-86
2022/01/03 04:30:11;;;;;;;0.95;0.95;;;;;;;-9.89;82.64;98023.00;4921494;29;20051;-87
2022/01/03 04:32:39;;;;;;;1.02;1.02;;;;;;;-9.95;82.13;98018.31;4921730;29;20130;-88
2022/01/03 04:35:07;;;;;;;0.82;0.82;;;;;;;-9.96;82.53;98021.91;4939210;29;20147;-87
2022/01/03 04:37:34;;;;;;;0.90;0.90;;;;;;;-9.97;82.65;98005.44;4921477;29;20106;-87
2022/01/03 04:40:02;;;;;;;0.90;0.90;;;;;;;-9.87;82.61;98000.19;4923702;29;20106;-87
2022/01/03 04:42:29;;;;;;;0.90;0.90;;;;;;;-9.83;82.63;97998.94;4954172;29;20052;-89
2022/01/03 04:44:57;;;;;;;1.13;1.10;;;;;;;-9.86;82.66;98004.44;4913912;29;20098;-88
2022/01/03 04:47:24;;;;;;;0.85;0.85;;;;;;;-9.87;82.45;97982.72;4928019;28;20130;-88
2022/01/03 04:49:51;;;;;;;1.00;1.00;;;;;;;-9.84;82.60;97989.47;4932191;29;20050;-88
2022/01/03 04:52:18;;;;;;;1.00;1.00;;;;;;;-9.88;82.36;97986.28;4921231;29;20043;-85
2022/01/03 04:54:45;;;;;;;0.98;0.98;;;;;;;-9.87;82.32;97979.31;4938822;29;20107;-87
2022/01/03 04:57:13;;;;;;;0.75;0.75;;;;;;;-9.88;82.38;97977.66;4907007;29;20058;-88
2022/01/03 04:59:40;;;;;;;0.80;0.80;;;;;;;-9.87;82.04;97969.69;4947639;29;20427;-88
2022/01/03 05:02:07;;;;;;;0.90;0.90;;;;;;;-9.86;82.21;97973.09;4935311;29;20099;-89
2022/01/03 05:04:34;;;;;;;0.73;0.73;;;;;;;-9.89;82.12;97966.38;4943519;29;20415;-88
2022/01/03 05:07:03;;;;;;;0.95;0.95;;;;;;;-9.91;82.15;97957.84;4921515;29;20066;-87
2022/01/03 05:09:31;;;;;;;0.90;0.90;;;;;;;-9.93;82.27;97957.19;4923046;29;20048;-87
2022/01/03 05:11:58;;;;;;;1.00;1.00;;;;;;;-9.82;82.27;97948.38;4921805;29;20099;-89
2022/01/03 05:14:25;;;;;;;1.00;1.00;;;;;;;-9.81;82.28;97947.41;4921883;29;20593;-88
2022/01/03 05:16:53;;;;;;;1.00;1.00;;;;;;;-9.73;82.37;97950.13;4938588;29;20051;-89
2022/01/03 05:19:21;;;;;;;1.15;1.15;;;;;;;-9.69;82.38;97948.88;4923947;29;20052;-88
2022/01/03 05:21:48;;;;;;;1.10;1.10;;;;;;;-9.62;82.35;97942.13;4938065;29;20060;-87
2022/01/03 05:24:19;;;;;;;1.10;1.10;;;;;;;-9.62;81.93;97944.75;4920577;29;20400;-86
2022/01/03 05:26:49;;;;;;;1.00;1.00;;;;;;;-9.63;82.09;97950.91;4920121;29;20059;-87
2022/01/03 05:29:16;;;;;;;1.00;1.00;;;;;;;-9.68;82.35;97947.09;4941250;29;20122;-87
2022/01/03 05:31:48;;;;;;;0.90;0.90;;;;;;;-9.66;82.29;97945.16;4925425;29;20183;-88
2022/01/03 05:34:16;;;;;;;0.98;0.98;;;;;;;-9.63;82.22;97950.91;4942365;29;20058;-87
2022/01/03 05:36:45;;;;;;;0.90;0.90;;;;;;;-9.63;82.31;97937.03;4922362;29;20078;-88
2022/01/03 05:39:13;;;;;;;0.90;0.90;;;;;;;-9.64;82.02;97943.22;4922537;29;20566;-89
2022/01/03 05:41:41;;;;;;;1.38;1.27;;;;;;;-9.70;82.29;97938.56;4931309;29;20439;-88
2022/01/03 05:44:10;;;;;;;1.00;1.00;;;;;;;-9.69;82.07;97938.44;4923977;29;20381;-84
2022/01/03 05:46:38;;;;;;;1.08;1.08;;;;;;;-9.65;82.09;97947.59;4931031;29;20056;-86
2022/01/03 05:49:11;;;;;;;0.95;0.95;;;;;;;-9.69;81.90;97946.28;4951329;29;20140;-86
2022/01/03 05:52:05;;;;;;;0.80;0.80;;;;;;;-9.68;82.10;97936.63;4894912;29;20078;-84
2022/01/03 05:54:33;;;;;;;1.00;1.00;;;;;;;-9.69;81.95;97932.38;4939821;29;20146;-87
2022/01/03 05:57:01;;;;;;;1.10;1.10;;;;;;;-9.73;82.08;97931.84;4924220;29;20071;-86
2022/01/03 05:59:28;;;;;;;1.13;1.13;;;;;;;-9.71;82.37;97926.47;4935646;29;20051;-87
2022/01/03 06:01:56;;;;;;;0.80;0.80;;;;;;;-9.68;82.22;97913.94;4942109;29;20051;-90
2022/01/03 06:04:40;;;;;;;1.10;1.10;;;;;;;-9.64;81.91;97911.88;4913355;29;20048;-88
2022/01/03 06:10:39;;;;;;;1.00;1.00;;;;;;;-9.60;82.18;97903.59;4917955;29;20059;-87
2022/01/03 06:13:09;;;;;;;1.30;1.20;;;;;;;-9.55;82.02;97904.97;4932226;29;20060;-90
2022/01/03 06:15:38;;;;;;;1.05;1.05;;;;;;;-9.54;81.76;97901.38;4919645;29;20052;-86
2022/01/03 06:18:10;;;;;;;1.13;1.13;;;;;;;-9.53;81.68;97896.03;4931532;29;20586;-91
2022/01/03 06:20:41;;;;;;;1.30;1.20;;;;;;;-9.61;81.69;97890.69;4909601;29;20055;-91
2022/01/03 06:23:09;;;;;;;1.13;1.13;;;;;;;-9.64;81.93;97878.75;4914143;29;20214;-90
2022/01/03 06:25:37;;;;;;;1.10;1.10;;;;;;;-9.60;82.04;97877.47;4935367;29;20138;-88
2022/01/03 06:28:08;;;;;;;1.02;1.02;;;;;;;-9.55;81.82;97873.63;4624385;29;10000691;-92
2022/01/03 06:30:42;;;;;;;0.60;0.60;;;;;;;-9.57;81.67;97865.91;4910262;29;20348;-88
2022/01/03 06:33:12;;;;;;;0.95;0.95;;;;;;;-9.65;81.44;97863.22;4931409;29;20103;-87
2022/01/03 06:35:41;;;;;;;0.88;0.88;;;;;;;-9.58;81.37;97871.31;4917753;29;20044;-86
2022/01/03 06:38:08;;;;;;;1.30;1.20;;;;;;;-9.57;81.40;97862.50;4935890;29;20054;-86
2022/01/03 06:40:36;;;;;;;1.10;1.10;;;;;;;-9.57;81.51;97857.25;4899790;29;20811;-90
2022/01/03 06:43:03;;;;;;;1.17;1.17;;;;;;;-9.57;81.64;97855.47;4903491;29;20079;-87
2022/01/03 06:45:31;;;;;;;1.13;1.13;;;;;;;-9.54;81.68;97849.97;4925041;29;20115;-84
2022/01/03 06:47:58;;;;;;;1.10;1.10;;;;;;;-9.48;81.69;97851.19;4920917;29;20059;-89
2022/01/03 06:50:30;;;;;;;1.10;1.10;;;;;;;-9.41;81.62;97844.41;4905278;29;20048;-87
2022/01/03 06:52:58;;;;;;;1.30;1.20;;;;;;;-9.41;81.21;97834.78;4920375;29;20051;-84
2022/01/03 06:55:26;;;;;;;1.08;1.08;;;;;;;-9.41;81.04;97826.94;4887772;29;20048;-83
2022/01/03 06:57:53;;;;;;;1.30;1.20;;;;;;;-9.51;80.86;97828.78;4899918;29;20139;-86
2022/01/03 07:00:22;;;;;;;0.88;0.88;;;;;;;-9.54;80.90;97825.63;4895502;29;20056;-87
2022/01/03 07:02:50;;;;;;;0.98;0.98;;;;;;;-9.54;81.02;97825.63;4895840;29;20549;-85
2022/01/03 07:05:17;;;;;;;1.40;1.30;;;;;;;-9.54;80.95;97812.56;4915742;29;20516;-89
2022/01/03 07:07:44;;;;;;;1.13;1.13;;;;;;;-9.44;80.85;97808.13;4911887;29;20142;-87
2022/01/03 07:10:11;;;;;;;1.00;1.00;;;;;;;-9.39;80.80;97813.72;4911345;29;20066;-86
2022/01/03 07:12:39;;;;;;;1.10;1.10;;;;;;;-9.38;80.71;97812.75;4915435;29;20060;-90
2022/01/03 07:20:39;;;;;;;1.08;1.08;;;;;;;-9.39;80.25;97808.50;4912515;29;20082;-85
2022/01/03 07:23:06;;;;;;;0.98;0.98;;;;;;;-9.31;80.33;97807.78;4899446;29;20542;-83
2022/01/03 07:25:33;;;;;;;1.20;1.20;;;;;;;-9.24;80.31;97804.41;4902800;29;20744;-85
2022/01/03 07:28:03;;;;;;;1.20;1.13;;;;;;;-9.28;79.91;97804.84;4907839;29;20060;-84
2022/01/03 07:30:30;;;;;;;1.10;1.10;;;;;;;-9.31;79.93;97808.59;4906071;29;20467;-82
2022/01/03 07:32:58;;;;;;;1.27;1.20;;;;;;;-9.30;80.09;97815.44;4914055;29;20077;-88
2022/01/03 07:35:25;;;;;;;1.15;1.13;;;;;;;-9.27;80.09;97806.47;4912777;29;20080;-87
2022/01/03 07:37:53;;;;;;;1.13;1.13;;;;;;;-9.27;79.94;97806.47;4569136;29;10000400;-87
2022/01/03 07:40:21;;;;;;;0.93;0.93;;;;;;;-9.23;79.93;97810.47;4911133;29;20075;-89
2022/01/03 07:42:48;;;;;;;0.93;0.93;;;;;;;-9.20;79.74;97810.97;4911155;29;20060;-86
2022/01/03 07:45:15;;;;;;;0.80;0.80;;;;;;;-9.14;79.68;97813.97;4914667;29;20058;-92
2022/01/03 07:47:42;;;;;;;1.00;1.00;;;;;;;-9.12;79.70;97807.59;4908690;29;20060;-88
2022/01/03 07:50:11;;;;;;;0.88;0.88;;;;;;;-9.16;79.80;97799.25;4908022;29;20135;-88
2022/01/03 07:52:38;;;;;;;1.00;1.00;;;;;;;-9.20;79.87;97792.66;4917832;29;20056;-85
2022/01/03 07:55:07;;;;;;;1.10;1.10;;;;;;;-9.21;79.67;97798.88;4928119;29;20119;-89
2022/01/03 07:57:34;;;;;;;0.90;0.90;;;;;;;-9.12;79.65;97791.09;4904176;29;20052;-88
2022/01/03 08:00:01;;;;;;;0.93;0.93;;;;;;;-9.13;79.42;97798.13;4916638;29;20075;-86
2022/01/03 08:02:40;;;;;;;1.00;1.00;;;;;;;-9.05;79.25;97786.94;4916868;29;20508;-92
2022/01/03 08:05:10;;;;;;;0.77;0.77;;;;;;;-8.99;79.01;97775.84;4924559;29;20066;-90
2022/01/03 08:07:38;;;;;;;0.80;0.80;;;;;;;-8.96;78.81;97765.94;4920888;29;20056;-89
2022/01/03 08:10:07;;;;;;;1.20;1.10;;;;;;;-8.95;78.80;97766.75;4906830;29;20066;-89
2022/01/03 08:12:34;;;;;;;0.95;0.95;;;;;;;-8.88;78.84;97770.41;4918864;29;20048;-90
2022/01/03 08:15:04;;;;;;;1.10;1.10;;;;;;;-8.82;78.62;97764.56;4911004;29;20135;-91
2022/01/03 08:17:31;;;;;;;1.00;1.00;;;;;;;-8.83;78.65;97759.50;4920510;29;20146;-89
2022/01/03 08:19:58;;;;;;;1.10;1.10;;;;;;;-8.92;78.20;97745.53;4917046;29;20051;-90
2022/01/03 08:22:25;;;;;;;1.00;1.00;;;;;;;-9.02;78.13;97740.38;4914688;29;20044;-87
2022/01/03 08:24:52;;;;;;;1.00;1.00;;;;;;;-9.05;78.11;97742.50;4917509;29;20048;-88
2022/01/03 08:27:19;;;;;;;1.10;1.10;;;;;;;-9.02;78.28;97739.56;4902570;29;20048;-89
2022/01/03 08:29:46;;;;;;;1.27;1.20;;;;;;;-9.06;78.09;97739.06;4922852;29;20058;-88
2022/01/03 08:32:14;;;;;;;1.08;1.08;;;;;;;-9.05;78.64;97734.66;4923936;29;20071;-91
2022/01/03 08:34:41;;;;;;;1.00;1.00;;;;;;;-8.96;78.26;97738.97;4919883;29;20477;-90
2022/01/03 08:37:09;;;;;;;1.05;1.05;;;;;;;-8.90;78.01;97740.16;4914273;29;20487;-87
2022/01/03 08:39:37;;;;;;;1.13;1.13;;;;;;;-8.87;77.95;97727.59;4914681;29;20087;-88
2022/01/03 08:42:04;;;;;;;1.10;1.10;;;;;;;-8.84;77.97;97726.44;4915548;29;20060;-87
2022/01/03 08:44:31;;;;;;;0.90;0.90;;;;;;;-8.78;77.80;97720.63;4916457;29;20100;-91
2022/01/03 08:46:58;;;;;;;1.17;1.17;;;;;;;-8.75;77.69;97715.91;4912144;29;20056;-87
2022/01/03 08:49:26;;;;;;;1.00;1.00;;;;;;;-8.69;77.72;97704.00;4911680;29;20150;-89
2022/01/03 08:51:53;;;;;;;1.00;1.00;;;;;;;-8.60;77.62;97699.66;4919989;29;20052;-89
2022/01/03 08:54:20;;;;;;;1.17;1.17;;;;;;;-8.57;77.31;97694.09;4926373;29;20455;-92
2022/01/03 08:56:47;;;;;;;1.05;1.05;;;;;;;-8.60;77.28;97687.38;4922203;29;20147;-93
2022/01/03 08:59:14;;;;;;;0.90;0.90;;;;;;;-8.55;77.42;97684.28;4920909;29;20666;-89
2022/01/03 09:01:41;;;;;;;1.00;1.00;;;;;;;-8.41;77.23;97678.47;4922946;29;20048;-87
2022/01/03 09:04:08;;;;;;;0.77;0.77;;;;;;;-8.37;76.70;97674.53;4920532;29;20052;-88
2022/01/03 09:06:36;;;;;;;0.90;0.90;;;;;;;-8.39;76.72;97663.41;4922531;29;20115;-90
2022/01/03 09:09:05;;;;;;;0.95;0.95;;;;;;;-8.42;76.90;97662.94;4918333;29;20138;-88
2022/01/03 09:11:32;;;;;;;0.90;0.90;;;;;;;-8.40;76.88;97658.38;4905987;29;20052;-88
2022/01/03 09:13:59;;;;;;;1.00;1.00;;;;;;;-8.35;76.75;97653.44;4918595;29;20063;-90
2022/01/03 09:16:26;;;;;;;0.90;0.90;;;;;;;-8.34;76.35;97642.00;4912871;29;20148;-89
2022/01/03 09:18:54;;;;;;;1.00;1.00;;;;;;;-8.33;76.00;97638.38;4921164;29;20056;-89
2022/01/03 09:21:21;;;;;;;1.30;1.20;;;;;;;-8.29;75.76;97639.72;4921552;29;20052;-89
2022/01/03 09:23:53;;;;;;;1.10;1.10;;;;;;;-8.23;75.60;97638.25;4911972;29;20135;-90
2022/01/03 09:29:05;;;;;;;1.00;1.00;;;;;;;-8.07;75.84;97635.69;4935909;29;20082;-86
2022/01/03 09:31:35;;;;;;;0.85;0.85;;;;;;;-8.02;75.64;97636.03;4937313;29;20048;-86
2022/01/03 09:34:05;;;;;;;1.02;1.02;;;;;;;-8.09;75.39;97630.59;4939559;29;20044;-87
2022/01/03 09:36:32;;;;;;;0.90;0.90;;;;;;;-8.08;75.35;97624.41;4934503;29;20136;-87
2022/01/03 09:39:00;;;;;;;1.00;1.00;;;;;;;-8.09;75.26;97616.69;4917297;29;20527;-88
2022/01/03 09:41:29;;;;;;;1.10;1.10;;;;;;;-8.02;74.98;97616.91;4920751;29;20044;-88
2022/01/03 09:44:02;;;;;;;0.90;0.90;;;;;;;-7.96;75.01;97611.81;4921853;29;20060;-89
2022/01/03 09:46:34;;;;;;;0.80;0.80;;;;;;;-7.92;74.89;97610.53;4927890;29;20044;-89
2022/01/03 09:49:03;;;;;;;0.90;0.90;;;;;;;-7.90;74.93;97611.19;4923295;29;20083;-88
2022/01/03 09:51:31;;;;;;;1.08;1.08;;;;;;;-7.82;74.67;97606.91;4921548;29;20397;-87
2022/01/03 09:54:07;;;;;;;0.98;0.98;;;;;;;-7.78;74.84;97598.56;4925091;29;20078;-89
2022/01/03 09:56:37;;;;;;;0.80;0.80;;;;;;;-7.77;74.45;97599.38;4922984;29;20056;-88
2022/01/03 09:59:05;;;;;;;0.85;0.85;;;;;;;-7.79;74.46;97593.50;4914552;29;20064;-90
2022/01/03 10:01:37;;;;;;;0.80;0.80;;;;;;;-7.87;74.26;97589.91;4922348;29;20048;-87
2022/01/03 10:04:04;;;;;;;0.80;0.80;;;;;;;-7.80;74.61;97587.44;4929957;29;20056;-85
2022/01/03 10:06:32;;;;;;;0.80;0.80;;;;;;;-7.74;74.41;97588.59;4930645;29;20032;-86
2022/01/03 10:09:00;;;;;;;0.90;0.90;;;;;;;-7.68;74.26;97586.13;4926584;29;20079;-87
2022/01/03 10:11:27;;;;;;;0.80;0.80;;;;;;;-7.63;74.00;97586.44;4919158;29;20053;-87
2022/01/03 10:13:54;;;;;;;1.08;1.08;;;;;;;-7.65;73.96;97584.97;4928590;29;20044;-86
2022/01/03 10:16:21;;;;;;;1.00;1.00;;;;;;;-7.60;74.11;97584.50;4917785;29;20112;-85
2022/01/03 10:19:09;;;;;;;0.90;0.90;;;;;;;-7.57;73.95;97579.75;4920227;29;20051;-83
2022/01/03 10:21:46;;;;;;;0.70;0.70;;;;;;;-7.52;74.31;97579.25;4911940;29;20044;-85
2022/01/03 10:24:15;;;;;;;0.88;0.88;;;;;;;-7.50;73.68;97566.81;4908108;29;20484;-84
2022/01/03 10:26:43;;;;;;;0.80;0.80;;;;;;;-7.51;74.08;97568.59;4914489;29;20086;-84
2022/01/03 10:29:14;;;;;;;0.70;0.70;;;;;;;-7.51;73.96;97573.84;4908382;29;20055;-85
2022/01/03 10:31:43;;;;;;;0.75;0.75;;;;;;;-7.54;73.96;97562.91;4911625;29;20084;-84
2022/01/03 10:34:13;;;;;;;0.65;0.65;;;;;;;-7.56;73.66;97560.44;4909764;29;20111;-85
2022/01/03 10:36:42;;;;;;;0.70;0.70;;;;;;;-7.53;73.65;97560.09;4912150;29;20508;-84
2022/01/03 10:39:25;;;;;;;0.85;0.85;;;;;;;-7.56;73.70;97557.81;4905890;29;20063;-84
2022/01/03 10:42:15;;;;;;;0.90;0.90;;;;;;;-7.60;73.80;97553.88;4909224;29;20060;-82
2022/01/03 10:44:45;;;;;;;0.80;0.80;;;;;;;-7.64;73.92;97555.19;4911113;29;20607;-82
2022/01/03 10:47:15;;;;;;;0.75;0.75;;;;;;;-7.65;74.13;97545.69;4905203;29;20088;-83
2022/01/03 10:49:43;;;;;;;0.90;0.90;;;;;;;-7.72;74.16;97545.53;4910248;29;20477;-84
2022/01/03 10:52:22;;;;;;;0.70;0.70;;;;;;;-7.76;74.36;97543.41;4900513;29;20524;-84
2022/01/03 10:55:11;;;;;;;0.90;0.90;;;;;;;-7.76;74.43;97543.41;4901588;29;20429;-84
2022/01/03 10:57:58;;;;;;;0.80;0.80;;;;;;;-7.80;74.16;97539.47;4910841;29;20052;-84
2022/01/03 11:00:28;;;;;;;0.80;0.80;;;;;;;-7.87;73.77;97531.47;4904869;29;20053;-83
2022/01/03 11:03:11;;;;;;;0.70;0.70;;;;;;;-7.95;74.11;97531.44;4908575;29;20045;-87
2022/01/03 11:05:42;;;;;;;0.90;0.90;;;;;;;-7.96;74.20;97537.69;4916143;29;20048;-85
2022/01/03 11:10:45;;;;;;;0.90;0.90;;;;;;;-7.91;74.04;97538.00;4915664;29;20139;-86
2022/01/03 11:13:18;;;;;;;0.80;0.80;;;;;;;-7.94;73.97;97531.28;4918048;29;20043;-86
2022/01/03 11:15:57;;;;;;;0.80;0.80;;;;;;;-7.89;74.29;97525.56;4910367;29;20088;-85
2022/01/03 11:18:28;;;;;;;0.95;0.95;;;;;;;-7.96;74.48;97520.16;4916168;29;20056;-85
2022/01/03 11:21:16;;;;;;;0.63;0.63;;;;;;;-7.89;74.92;97518.53;4914379;29;20134;-83
2022/01/03 11:23:58;;;;;;;0.77;0.77;;;;;;;-7.92;74.47;97518.06;4905015;29;20052;-87
2022/01/03 11:26:27;;;;;;;0.93;0.93;;;;;;;-7.97;74.36;97515.91;4910496;29;20105;-87
2022/01/03 11:28:56;;;;;;;0.95;0.95;;;;;;;-8.02;74.50;97517.41;4894987;29;20104;-85
2022/01/03 11:31:24;;;;;;;0.90;0.90;;;;;;;-8.06;74.69;97502.00;4912021;29;20158;-84
2022/01/03 11:33:52;;;;;;;1.00;1.00;;;;;;;-8.02;74.67;97507.72;4917844;29;20052;-85
2022/01/03 11:36:40;;;;;;;0.90;0.90;;;;;;;-8.06;74.67;97515.06;4915468;29;20126;-84
2022/01/03 11:39:10;;;;;;;0.73;0.73;;;;;;;-8.16;74.54;97505.75;4917767;29;20047;-85
2022/01/03 11:41:39;;;;;;;0.70;0.70;;;;;;;-8.17;74.55;97498.91;4917528;29;20423;-85
2022/01/03 11:44:10;;;;;;;0.88;0.88;;;;;;;-8.16;74.46;97503.13;4899871;29;20075;-85
2022/01/03 11:46:37;;;;;;;0.80;0.80;;;;;;;-8.21;74.61;97506.25;4899233;29;20056;-86
2022/01/03 11:49:05;;;;;;;0.80;0.80;;;;;;;-8.23;74.75;97499.53;4906748;29;20048;-86
2022/01/03 11:51:34;;;;;;;0.80;0.80;;;;;;;-8.25;75.12;97506.72;4910492;29;20446;-86
2022/01/03 11:54:07;;;;;;;1.00;1.00;;;;;;;-8.26;74.88;97511.13;4909119;29;20063;-86
2022/01/03 11:56:40;;;;;;;1.00;1.00;;;;;;;-8.27;75.01;97503.47;4914031;29;20427;-86
2022/01/03 12:04:58;;;;;;;0.70;0.70;;;;;;;-8.35;75.51;97501.66;4911084;29;20323;-85
2022/01/03 12:07:26;;;;;;;0.98;0.98;;;;;;;-8.34;75.32;97496.25;4900106;29;20107;-84
2022/01/03 12:10:07;;;;;;;0.80;0.80;;;;;;;-8.34;75.33;97498.88;4912683;29;20055;-85